createdAt,value
2023-03-10T00:04:55.033Z,49.08
2023-03-10T00:09:56.665Z,49.11
2023-03-10T00:14:58.176Z,48.89
2023-03-10T00:19:59.725Z,49.08
2023-03-10T00:25:01.218Z,49.22
2023-03-10T00:30:03.402Z,49.14
2023-03-10T00:35:06.434Z,49.26
2023-03-10T00:40:18.351Z,48.64
2023-03-10T00:45:19.938Z,49.14
2023-03-10T00:50:22.844Z,48.90
2023-03-10T00:55:24.340Z,48.74
2023-03-10T01:00:26.061Z,48.83
2023-03-10T01:05:29.042Z,48.81
2023-03-10T01:10:30.600Z,48.74
2023-03-10T01:15:32.176Z,48.76
2023-03-10T01:20:35.157Z,48.53
2023-03-10T01:25:36.658Z,48.56
2023-03-10T01:30:39.016Z,48.77
2023-03-10T01:35:40.647Z,48.47
2023-03-10T01:40:49.128Z,48.48
2023-03-10T01:45:50.510Z,48.72
2023-03-10T01:50:55.651Z,48.92
2023-03-10T01:56:02.670Z,48.82
2023-03-10T02:01:07.406Z,48.83
2023-03-10T02:06:14.120Z,48.46
2023-03-10T02:11:16.520Z,48.45
2023-03-10T02:16:18.506Z,48.61
2023-03-10T02:21:44.350Z,48.39
2023-03-10T02:26:55.083Z,48.48
2023-03-10T02:31:58.572Z,48.19
2023-03-10T02:37:00.199Z,48.19
2023-03-10T02:42:01.964Z,48.05
2023-03-10T02:47:03.783Z,48.01
2023-03-10T02:52:09.890Z,48.40
2023-03-10T02:57:11.511Z,48.08
2023-03-10T03:02:13.183Z,48.11
2023-03-10T03:07:14.822Z,48.14
2023-03-10T03:12:16.396Z,48.01
2023-03-10T03:17:18.043Z,48.10
2023-03-10T03:22:19.636Z,48.42
2023-03-10T03:27:21.199Z,48.19
2023-03-10T03:32:23.508Z,48.43
2023-03-10T03:37:25.484Z,48.36
2023-03-10T03:42:27.259Z,48.22
2023-03-10T03:47:29.902Z,48.40
2023-03-10T03:52:32.817Z,48.55
2023-03-10T03:57:35.764Z,48.51
2023-03-10T04:02:37.852Z,48.43
2023-03-10T04:07:41.696Z,48.74
2023-03-10T04:12:45.028Z,48.75
2023-03-10T04:17:46.704Z,48.81
2023-03-10T04:22:48.386Z,48.93
2023-03-10T04:27:50.057Z,49.11
2023-03-10T04:32:52.708Z,48.91
2023-03-10T04:37:57.780Z,49.55
2023-03-10T04:43:00.808Z,49.80
2023-03-10T04:48:04.066Z,50.06
2023-03-10T04:53:05.649Z,50.63
2023-03-10T04:58:07.962Z,51.21
2023-03-10T05:03:10.179Z,50.91
2023-03-10T05:08:11.988Z,52.45
2023-03-10T05:13:14.093Z,53.41
2023-03-10T05:18:17.017Z,53.67
2023-03-10T05:23:18.617Z,54.71
2023-03-10T05:28:20.196Z,55.10
2023-03-10T05:33:22.306Z,54.98
2023-03-10T05:38:25.712Z,56.14
2023-03-10T05:43:27.595Z,57.14
2023-03-10T05:48:29.682Z,56.07
2023-03-10T05:53:34.308Z,56.42
2023-03-10T05:58:37.319Z,56.81
2023-03-10T06:03:39.675Z,57.01
2023-03-10T06:08:42.972Z,56.38
2023-03-10T06:13:44.534Z,56.79
2023-03-10T06:18:46.150Z,57.78
2023-03-10T06:23:47.797Z,58.28
2023-03-10T06:28:49.389Z,56.99
2023-03-10T06:33:51.974Z,56.83
2023-03-10T06:38:54.528Z,56.56
2023-03-10T06:43:56.092Z,57.03
2023-03-10T06:48:57.575Z,56.89
2023-03-10T06:53:59.066Z,56.77
2023-03-10T06:59:00.664Z,56.57
2023-03-10T07:04:02.415Z,56.44
2023-03-10T07:09:04.513Z,56.77
2023-03-10T07:14:06.245Z,56.48
2023-03-10T07:19:07.785Z,56.19
2023-03-10T07:24:09.290Z,56.44
2023-03-10T07:29:11.141Z,56.21
2023-03-10T07:34:12.735Z,56.35
2023-03-10T07:39:15.091Z,56.41
2023-03-10T07:44:16.649Z,56.55
2023-03-10T07:49:18.901Z,56.48
2023-03-10T07:54:21.995Z,56.62
2023-03-10T07:59:23.566Z,56.86
2023-03-10T08:04:25.258Z,56.65
2023-03-10T08:09:27.096Z,56.95
2023-03-10T08:14:30.146Z,57.00
2023-03-10T08:19:31.663Z,57.01
2023-03-10T08:24:33.301Z,57.11
2023-03-10T08:29:35.330Z,56.62
2023-03-10T08:34:37.218Z,56.50
2023-03-10T08:39:39.014Z,56.40
2023-03-10T08:44:41.525Z,56.02
2023-03-10T08:49:45.699Z,55.83
2023-03-10T08:54:48.550Z,55.39
2023-03-10T08:59:51.552Z,55.77
2023-03-10T09:04:53.331Z,55.60
2023-03-10T09:09:54.893Z,55.20
2023-03-10T09:14:56.463Z,55.33
2023-03-10T09:19:57.973Z,55.24
2023-03-10T09:25:00.756Z,55.30
2023-03-10T09:30:02.782Z,55.02
2023-03-10T09:35:05.382Z,55.15
2023-03-10T09:40:10.151Z,54.71
2023-03-10T09:45:26.842Z,54.13
2023-03-10T09:50:34.140Z,53.86
2023-03-10T09:55:47.854Z,53.34
2023-03-10T10:00:49.872Z,53.13
2023-03-10T10:05:55.331Z,52.53
2023-03-10T10:10:59.617Z,52.62
2023-03-10T10:16:34.308Z,52.44
2023-03-10T10:21:52.663Z,50.78
2023-03-10T10:26:54.249Z,51.05
2023-03-10T10:32:13.499Z,50.60
2023-03-10T10:37:27.053Z,49.96
2023-03-10T10:42:31.666Z,49.65
2023-03-10T10:47:49.154Z,50.05
2023-03-10T10:52:53.729Z,49.68
2023-03-10T10:58:04.322Z,48.69
2023-03-10T11:03:39.362Z,49.88
2023-03-10T11:08:43.077Z,49.72
2023-03-10T11:14:17.232Z,49.94
2023-03-10T11:19:35.293Z,49.85
2023-03-10T11:24:54.020Z,49.66
2023-03-10T11:30:02.733Z,47.82
2023-03-10T11:35:29.546Z,47.97
2023-03-10T11:40:48.602Z,47.51
2023-03-10T11:45:54.190Z,47.71
2023-03-10T11:51:00.816Z,47.85
2023-03-10T11:56:03.527Z,47.27
2023-03-10T12:01:07.860Z,47.16
2023-03-10T12:06:16.063Z,47.81
2023-03-10T12:11:23.564Z,47.65
2023-03-10T12:16:35.869Z,47.08
2023-03-10T12:21:37.728Z,47.00
2023-03-10T12:26:39.306Z,46.33
2023-03-10T12:31:41.175Z,46.76
2023-03-10T12:36:46.481Z,45.46
2023-03-10T12:41:50.185Z,46.14
2023-03-10T12:47:10.730Z,45.88
2023-03-10T12:52:29.350Z,46.16
2023-03-10T12:57:39.143Z,45.90
2023-03-10T13:02:59.507Z,45.55
2023-03-10T13:08:23.037Z,45.58
2023-03-10T13:13:30.374Z,45.49
2023-03-10T13:18:33.604Z,45.42
2023-03-10T13:23:35.710Z,45.81
2023-03-10T13:28:38.092Z,45.50
2023-03-10T13:33:52.234Z,45.94
2023-03-10T13:38:56.381Z,45.65
2023-03-10T13:43:58.157Z,45.38
2023-03-10T13:49:06.418Z,45.79
2023-03-10T13:54:45.588Z,46.07
2023-03-10T13:59:48.325Z,46.32
2023-03-10T14:04:52.346Z,46.41
2023-03-10T14:10:07.703Z,46.80
2023-03-10T14:15:21.980Z,46.99
2023-03-10T14:20:44.149Z,46.63
2023-03-10T14:25:51.743Z,46.71
2023-03-10T14:30:53.519Z,47.27
2023-03-10T14:35:55.076Z,48.24
2023-03-10T14:40:56.779Z,48.29
2023-03-10T14:46:01.416Z,48.23
2023-03-10T14:51:03.465Z,48.52
2023-03-10T14:56:05.505Z,48.38
2023-03-10T15:01:07.252Z,49.07
2023-03-10T15:06:18.485Z,50.49
2023-03-10T15:11:35.711Z,50.50
2023-03-10T15:16:38.412Z,50.64
2023-03-10T15:21:39.958Z,50.92
2023-03-10T15:26:42.041Z,50.59
2023-03-10T15:31:43.742Z,50.79
2023-03-10T15:36:45.328Z,50.79
2023-03-10T15:41:46.935Z,50.76
2023-03-10T15:46:50.883Z,50.85
2023-03-10T15:51:52.550Z,51.05
2023-03-10T15:56:54.051Z,51.40
2023-03-10T16:01:55.943Z,52.13
2023-03-10T16:06:57.572Z,51.86
2023-03-10T16:11:59.095Z,53.02
2023-03-10T16:17:00.857Z,53.58
2023-03-10T16:22:02.482Z,54.22
2023-03-10T16:27:04.185Z,54.38
2023-03-10T16:32:08.261Z,55.19
2023-03-10T16:37:09.771Z,54.57
2023-03-10T16:42:11.290Z,54.31
2023-03-10T16:47:12.946Z,54.54
2023-03-10T16:52:14.497Z,54.41
2023-03-10T16:57:16.007Z,55.28
2023-03-10T17:02:17.667Z,54.94
2023-03-10T17:07:19.286Z,55.40
2023-03-10T17:12:20.947Z,55.82
2023-03-10T17:17:22.730Z,55.67
2023-03-10T17:22:24.537Z,55.52
2023-03-10T17:27:26.184Z,55.89
2023-03-10T17:32:28.259Z,56.11
2023-03-10T17:37:30.024Z,55.67
2023-03-10T17:42:32.561Z,55.97
2023-03-10T17:47:34.345Z,56.01
2023-03-10T17:52:35.882Z,55.56
2023-03-10T17:57:39.682Z,55.87
2023-03-10T18:02:42.283Z,55.74
2023-03-10T18:07:43.930Z,56.24
2023-03-10T18:12:45.542Z,55.69
2023-03-10T18:17:47.179Z,55.32
2023-03-10T18:22:48.746Z,55.28
2023-03-10T18:27:50.279Z,54.81
2023-03-10T18:32:51.958Z,54.47
2023-03-10T18:37:54.437Z,54.11
2023-03-10T18:42:56.231Z,53.97
2023-03-10T18:47:57.902Z,53.21
2023-03-10T18:52:59.496Z,52.67
2023-03-10T18:58:01.040Z,52.54
2023-03-10T19:03:02.736Z,52.79
2023-03-10T19:08:04.369Z,52.76
2023-03-10T19:13:07.386Z,52.70
2023-03-10T19:18:09.127Z,52.69
2023-03-10T19:23:10.811Z,52.86
2023-03-10T19:28:12.357Z,52.81
2023-03-10T19:33:13.905Z,52.49
2023-03-10T19:38:15.473Z,52.21
2023-03-10T19:43:16.987Z,52.04
2023-03-10T19:48:18.590Z,52.64
2023-03-10T19:53:21.345Z,52.31
2023-03-10T19:58:23.784Z,52.44
2023-03-10T20:03:27.521Z,52.21
2023-03-10T20:08:29.101Z,52.27
2023-03-10T20:13:31.996Z,52.37
2023-03-10T20:18:33.898Z,52.20
2023-03-10T20:23:35.638Z,52.15
2023-03-10T20:28:37.391Z,52.53
2023-03-10T20:33:38.956Z,53.07
2023-03-10T20:38:44.663Z,52.65
2023-03-10T20:43:46.516Z,52.75
2023-03-10T20:48:50.549Z,52.21
2023-03-10T20:53:52.407Z,52.70
2023-03-10T20:58:59.238Z,52.21
2023-03-10T21:04:01.055Z,52.70
2023-03-10T21:09:05.824Z,52.67
2023-03-10T21:14:07.543Z,52.73
2023-03-10T21:19:10.294Z,52.89
2023-03-10T21:24:12.109Z,53.11
2023-03-10T21:29:13.722Z,53.28
2023-03-10T21:34:15.239Z,52.87
2023-03-10T21:39:17.365Z,53.43
2023-03-10T21:44:18.948Z,53.49
2023-03-10T21:49:20.541Z,53.34
2023-03-10T21:54:22.180Z,53.84
2023-03-10T21:59:23.810Z,53.53
2023-03-10T22:04:25.411Z,53.75
2023-03-10T22:09:28.370Z,53.20
2023-03-10T22:14:29.952Z,52.67
2023-03-10T22:19:31.667Z,51.97
2023-03-10T22:24:33.453Z,51.76
2023-03-10T22:29:35.308Z,51.55
2023-03-10T22:34:36.880Z,51.08
2023-03-10T22:39:38.525Z,50.98
2023-03-10T22:44:40.381Z,50.41
2023-03-10T22:49:42.077Z,50.01
2023-03-10T22:54:43.803Z,49.32
2023-03-10T22:59:45.369Z,48.86
2023-03-10T23:04:46.947Z,48.65
2023-03-10T23:09:48.531Z,48.47
2023-03-10T23:14:50.445Z,47.95
2023-03-10T23:19:55.899Z,48.32
2023-03-10T23:24:57.553Z,47.63
2023-03-10T23:29:59.093Z,46.68
2023-03-10T23:35:00.661Z,46.50
2023-03-10T23:40:02.485Z,46.02
2023-03-10T23:45:09.830Z,46.16
2023-03-10T23:50:24.650Z,45.65
2023-03-10T23:55:30.188Z,45.94
